createdAt,value
2022-08-01T00:00:09.153Z,78.70
2022-08-01T00:02:39.138Z,78.70
2022-08-01T00:05:09.526Z,78.70
2022-08-01T00:07:36.607Z,78.70
2022-08-01T00:10:05.193Z,78.70
2022-08-01T00:12:32.101Z,78.70
2022-08-01T00:14:58.866Z,78.70
2022-08-01T00:17:25.749Z,78.80
2022-08-01T00:19:52.649Z,78.90
2022-08-01T00:22:19.432Z,78.90
2022-08-01T00:24:46.446Z,79.00
2022-08-01T00:27:13.295Z,79.00
2022-08-01T00:30:12.218Z,79.00
2022-08-01T00:32:27.064Z,79.00
2022-08-01T00:34:53.896Z,79.00
2022-08-01T00:37:21.212Z,79.00
2022-08-01T00:39:48.385Z,79.10
2022-08-01T00:42:15.738Z,79.10
2022-08-01T00:44:42.694Z,79.10
2022-08-01T00:47:09.603Z,79.20
2022-08-01T00:49:36.900Z,79.30
2022-08-01T00:52:05.941Z,79.40
2022-08-01T00:54:33.255Z,79.60
2022-08-01T00:57:00.137Z,79.70
2022-08-01T00:59:27.016Z,79.80
2022-08-01T01:01:54.425Z,79.90
2022-08-01T01:04:21.918Z,80.00
2022-08-01T01:07:21.216Z,80.00
2022-08-01T01:09:58.882Z,80.00
2022-08-01T01:12:35.958Z,80.00
2022-08-01T01:15:09.717Z,80.00
2022-08-01T01:17:58.317Z,80.00
2022-08-01T01:20:45.877Z,80.00
2022-08-01T01:23:31.530Z,80.00
2022-08-01T01:26:37.010Z,80.10
2022-08-01T01:29:21.702Z,80.20
2022-08-01T01:31:53.741Z,80.30
2022-08-01T01:34:22.341Z,80.20
2022-08-01T01:36:50.933Z,80.30
2022-08-01T01:39:17.940Z,80.30
2022-08-01T01:41:45.454Z,80.20
2022-08-01T01:44:12.360Z,80.20
2022-08-01T01:46:39.217Z,80.90
2022-08-01T01:49:06.249Z,80.30
2022-08-01T01:51:33.299Z,80.30
2022-08-01T01:54:00.321Z,80.40
2022-08-01T01:56:27.280Z,80.40
2022-08-01T01:58:56.327Z,80.40
2022-08-01T02:01:58.595Z,80.40
2022-08-01T02:04:15.151Z,80.40
2022-08-01T02:06:41.984Z,80.30
2022-08-01T02:09:09.264Z,80.40
2022-08-01T02:11:37.642Z,80.40
2022-08-01T02:14:24.529Z,80.40
2022-08-01T02:16:51.626Z,80.40
2022-08-01T02:19:18.569Z,80.40
2022-08-01T02:21:59.234Z,80.50
2022-08-01T02:24:48.049Z,80.50
2022-08-01T02:27:17.094Z,80.60
2022-08-01T02:30:06.934Z,80.60
2022-08-01T02:32:50.989Z,80.80
2022-08-01T02:35:24.336Z,80.70
2022-08-01T02:37:51.321Z,80.80
2022-08-01T02:40:18.274Z,80.80
2022-08-01T02:42:46.699Z,80.80
2022-08-01T02:45:14.065Z,80.90
2022-08-01T02:47:41.505Z,81.00
2022-08-01T02:50:09.331Z,81.10
2022-08-01T02:52:36.534Z,81.20
2022-08-01T02:55:03.618Z,81.20
2022-08-01T02:57:51.673Z,81.40
2022-08-01T03:00:18.762Z,81.50
2022-08-01T03:02:46.053Z,81.60
2022-08-01T03:05:13.390Z,81.70
2022-08-01T03:07:40.615Z,81.90
2022-08-01T03:10:08.753Z,82.00
2022-08-01T03:12:35.599Z,82.10
2022-08-01T03:15:03.446Z,82.20
2022-08-01T03:17:30.692Z,82.30
2022-08-01T03:19:58.644Z,82.40
2022-08-01T03:22:26.247Z,82.60
2022-08-01T03:24:54.227Z,82.70
2022-08-01T03:27:21.947Z,82.80
2022-08-01T03:29:49.976Z,82.90
2022-08-01T03:32:17.209Z,83.00
2022-08-01T03:34:44.020Z,83.20
2022-08-01T03:37:35.025Z,83.20
2022-08-01T03:40:33.579Z,83.40
2022-08-01T03:43:03.672Z,83.50
2022-08-01T03:45:36.525Z,83.50
2022-08-01T03:48:06.525Z,83.70
2022-08-01T03:50:35.027Z,83.80
2022-08-01T03:53:02.875Z,83.90
2022-08-01T03:55:29.842Z,83.90
2022-08-01T03:57:56.688Z,84.10
2022-08-01T04:00:23.833Z,84.20
2022-08-01T04:02:50.941Z,84.30
2022-08-01T04:05:18.296Z,84.40
2022-08-01T04:07:56.585Z,84.50
2022-08-01T04:10:24.209Z,84.50
2022-08-01T04:12:51.149Z,84.50
2022-08-01T04:15:17.977Z,84.50
2022-08-01T04:17:44.833Z,84.50
2022-08-01T04:20:12.305Z,84.50
2022-08-01T04:22:39.534Z,84.60
2022-08-01T04:25:18.700Z,84.50
2022-08-01T04:27:48.456Z,84.60
2022-08-01T04:30:25.614Z,84.70
2022-08-01T04:32:52.974Z,84.70
2022-08-01T04:35:23.179Z,84.80
2022-08-01T04:38:07.150Z,84.90
2022-08-01T04:40:33.988Z,85.00
2022-08-01T04:43:01.333Z,85.10
2022-08-01T04:45:28.211Z,85.10
2022-08-01T04:47:55.034Z,85.10
2022-08-01T04:50:25.466Z,85.20
2022-08-01T04:52:52.703Z,85.30
2022-08-01T04:55:19.660Z,85.40
2022-08-01T04:57:47.552Z,85.40
2022-08-01T05:00:15.071Z,85.30
2022-08-01T05:02:41.945Z,85.40
2022-08-01T05:05:09.375Z,85.40
2022-08-01T05:07:44.124Z,85.40
2022-08-01T05:10:12.579Z,85.50
2022-08-01T05:12:39.354Z,85.50
2022-08-01T05:15:11.748Z,85.50
2022-08-01T05:17:43.300Z,85.60
2022-08-01T05:20:11.381Z,85.50
2022-08-01T05:22:38.903Z,85.50
2022-08-01T05:25:06.357Z,85.60
2022-08-01T05:27:33.912Z,85.60
2022-08-01T05:30:03.841Z,85.60
2022-08-01T05:32:31.528Z,85.60
2022-08-01T05:34:58.443Z,85.60
2022-08-01T05:37:25.179Z,85.60
2022-08-01T05:39:52.127Z,85.50
2022-08-01T05:42:19.083Z,85.40
2022-08-01T05:44:45.995Z,85.30
2022-08-01T05:47:12.933Z,85.20
2022-08-01T05:49:39.819Z,85.20
2022-08-01T05:52:06.901Z,85.10
2022-08-01T05:54:34.015Z,85.10
2022-08-01T05:57:02.528Z,85.00
2022-08-01T05:59:30.173Z,85.00
2022-08-01T06:01:57.152Z,84.90
2022-08-01T06:04:24.051Z,84.80
2022-08-01T06:06:51.009Z,84.60
2022-08-01T06:09:17.916Z,84.60
2022-08-01T06:11:44.767Z,84.50
2022-08-01T06:14:12.038Z,84.40
2022-08-01T06:16:39.000Z,84.20
2022-08-01T06:19:05.815Z,84.10
2022-08-01T06:21:32.606Z,84.00
2022-08-01T06:23:59.506Z,83.90
2022-08-01T06:26:26.306Z,83.80
2022-08-01T06:28:53.089Z,83.50
2022-08-01T06:31:20.041Z,83.40
2022-08-01T06:33:47.075Z,83.30
2022-08-01T06:36:14.053Z,83.20
2022-08-01T06:38:41.183Z,83.60
2022-08-01T06:41:08.151Z,83.00
2022-08-01T06:43:35.113Z,82.90
2022-08-01T06:46:02.219Z,82.70
2022-08-01T06:48:29.129Z,82.50
2022-08-01T06:51:09.040Z,82.70
2022-08-01T06:53:37.227Z,82.60
2022-08-01T06:56:04.755Z,82.70
2022-08-01T06:58:32.089Z,82.80
2022-08-01T07:00:59.520Z,82.80
2022-08-01T07:03:52.467Z,82.70
2022-08-01T07:06:13.510Z,82.70
2022-08-01T07:08:41.974Z,82.60
2022-08-01T07:11:09.178Z,82.50
2022-08-01T07:13:43.807Z,82.40
2022-08-01T07:16:11.512Z,82.30
2022-08-01T07:18:38.383Z,82.20
2022-08-01T07:21:05.346Z,82.10
2022-08-01T07:23:34.097Z,81.90
2022-08-01T07:26:04.576Z,81.90
2022-08-01T07:28:31.578Z,81.90
2022-08-01T07:30:58.530Z,81.80
2022-08-01T07:33:25.368Z,81.70
2022-08-01T07:35:52.240Z,81.40
2022-08-01T07:38:19.107Z,81.40
2022-08-01T07:40:46.002Z,81.30
2022-08-01T07:43:12.921Z,81.20
2022-08-01T07:45:39.866Z,81.10
2022-08-01T07:48:13.779Z,80.90
2022-08-01T07:50:40.620Z,80.80
2022-08-01T07:53:07.468Z,80.70
2022-08-01T07:55:34.433Z,80.90
2022-08-01T07:58:01.481Z,80.90
2022-08-01T08:00:29.479Z,80.80
2022-08-01T08:02:59.779Z,80.60
2022-08-01T08:05:57.639Z,80.30
2022-08-01T08:08:15.519Z,80.00
2022-08-01T08:10:42.475Z,80.40
2022-08-01T08:13:09.442Z,79.60
2022-08-01T08:15:36.495Z,79.40
2022-08-01T08:18:04.704Z,79.30
2022-08-01T08:20:31.920Z,79.10
2022-08-01T08:22:59.604Z,78.90
2022-08-01T08:25:26.922Z,78.80
2022-08-01T08:27:53.809Z,78.70
2022-08-01T08:30:21.762Z,78.30
2022-08-01T08:32:49.114Z,78.30
2022-08-01T08:35:23.008Z,78.10
2022-08-01T08:38:03.092Z,78.00
2022-08-01T08:40:30.976Z,77.80
2022-08-01T08:42:58.999Z,77.70
2022-08-01T08:45:30.930Z,77.70
2022-08-01T08:48:13.727Z,77.60
2022-08-01T08:50:42.022Z,77.30
2022-08-01T08:53:10.245Z,77.00
2022-08-01T08:55:56.089Z,76.70
2022-08-01T08:58:30.629Z,76.40
2022-08-01T09:00:58.705Z,76.20
2022-08-01T09:03:25.946Z,76.10
2022-08-01T09:05:52.905Z,75.90
2022-08-01T09:08:19.799Z,75.60
2022-08-01T09:10:46.814Z,75.20
2022-08-01T09:13:14.461Z,74.90
2022-08-01T09:15:42.403Z,74.40
2022-08-01T09:18:09.646Z,73.90
2022-08-01T09:20:36.992Z,73.60
2022-08-01T09:23:04.821Z,73.20
2022-08-01T09:25:45.966Z,72.90
2022-08-01T09:28:13.301Z,72.80
2022-08-01T09:30:43.568Z,72.60
2022-08-01T09:33:17.835Z,72.50
2022-08-01T09:35:57.187Z,72.20
2022-08-01T09:38:25.171Z,71.70
2022-08-01T09:41:02.069Z,71.40
2022-08-01T09:43:31.299Z,71.20
2022-08-01T09:45:58.863Z,71.30
2022-08-01T09:48:28.799Z,70.90
2022-08-01T09:51:00.865Z,70.50
2022-08-01T09:53:52.396Z,70.30
2022-08-01T09:56:20.368Z,69.80
2022-08-01T09:59:01.015Z,69.50
2022-08-01T10:01:36.525Z,68.90
2022-08-01T10:04:11.831Z,68.70
2022-08-01T10:06:40.890Z,68.10
2022-08-01T10:09:08.521Z,67.60
2022-08-01T10:11:37.709Z,67.40
2022-08-01T10:14:06.470Z,67.00
2022-08-01T10:16:38.680Z,66.90
2022-08-01T10:19:11.050Z,66.80
2022-08-01T10:21:56.439Z,66.70
2022-08-01T10:24:25.932Z,66.20
2022-08-01T10:27:00.869Z,65.60
2022-08-01T10:29:59.170Z,65.10
2022-08-01T10:32:31.991Z,64.50
2022-08-01T10:34:59.500Z,63.70
2022-08-01T10:37:34.998Z,63.00
2022-08-01T10:40:28.727Z,62.40
2022-08-01T10:42:48.767Z,61.90
2022-08-01T10:45:16.478Z,61.50
2022-08-01T10:48:07.424Z,61.20
2022-08-01T10:50:38.662Z,61.10
2022-08-01T10:53:24.071Z,60.80
2022-08-01T10:56:01.404Z,60.10
2022-08-01T10:58:39.778Z,60.30
2022-08-01T11:01:27.033Z,59.90
2022-08-01T11:04:17.374Z,59.80
2022-08-01T11:06:54.910Z,59.90
2022-08-01T11:09:36.332Z,60.00
2022-08-01T11:12:24.569Z,59.80
2022-08-01T11:15:02.980Z,60.10
2022-08-01T11:17:37.572Z,60.20
2022-08-01T11:20:13.776Z,60.00
2022-08-01T11:23:03.597Z,59.80
2022-08-01T11:26:04.760Z,59.60
2022-08-01T11:28:36.479Z,59.50
2022-08-01T11:31:11.781Z,59.30
2022-08-01T11:33:45.849Z,59.00
2022-08-01T11:36:14.719Z,58.70
2022-08-01T11:38:43.556Z,58.70
2022-08-01T11:41:15.640Z,58.40
2022-08-01T11:44:07.899Z,58.60
2022-08-01T11:47:00.055Z,58.40
2022-08-01T11:49:33.936Z,58.50
2022-08-01T11:52:10.982Z,58.50
2022-08-01T11:54:51.655Z,58.40
2022-08-01T11:57:34.657Z,58.40
2022-08-01T12:00:10.654Z,58.50
2022-08-01T12:02:42.631Z,58.70
2022-08-01T12:05:14.240Z,58.40
2022-08-01T12:07:44.288Z,58.00
2022-08-01T12:10:16.400Z,57.20
2022-08-01T12:12:47.220Z,56.10
2022-08-01T12:15:14.420Z,55.60
2022-08-01T12:17:47.214Z,55.40
2022-08-01T12:20:30.394Z,54.70
2022-08-01T12:22:58.913Z,54.10
2022-08-01T12:25:26.013Z,53.40
2022-08-01T12:27:56.549Z,52.80
2022-08-01T12:30:25.072Z,52.30
2022-08-01T12:32:52.918Z,52.30
2022-08-01T12:35:24.379Z,51.10
2022-08-01T12:38:03.666Z,50.70
2022-08-01T12:40:38.161Z,50.60
2022-08-01T12:43:07.713Z,50.80
2022-08-01T12:45:56.584Z,51.50
2022-08-01T12:48:24.414Z,51.50
2022-08-01T12:50:51.792Z,51.80
2022-08-01T12:53:21.635Z,52.00
2022-08-01T12:55:59.596Z,51.90
2022-08-01T12:58:32.399Z,51.20
2022-08-01T13:01:07.355Z,50.30
2022-08-01T13:03:34.591Z,50.00
2022-08-01T13:06:01.573Z,49.60
2022-08-01T13:08:35.001Z,48.80
2022-08-01T13:11:16.509Z,48.00
2022-08-01T13:13:52.818Z,47.70
2022-08-01T13:16:30.221Z,47.60
2022-08-01T13:19:05.846Z,48.00
2022-08-01T13:21:34.422Z,48.30
2022-08-01T13:24:27.971Z,48.00
2022-08-01T13:26:59.401Z,47.30
2022-08-01T13:29:42.198Z,46.90
2022-08-01T13:32:28.817Z,46.70
2022-08-01T13:35:10.336Z,46.70
2022-08-01T13:37:38.637Z,47.10
2022-08-01T13:40:09.587Z,47.70
2022-08-01T13:42:36.555Z,47.60
2022-08-01T13:45:14.015Z,47.00
2022-08-01T13:48:03.869Z,46.20
2022-08-01T13:50:32.689Z,45.60
2022-08-01T13:53:00.156Z,45.10
2022-08-01T13:55:32.325Z,44.90
2022-08-01T13:58:01.853Z,45.20
2022-08-01T14:00:28.943Z,45.60
2022-08-01T14:02:56.337Z,46.10
2022-08-01T14:05:23.248Z,46.70
2022-08-01T14:07:50.074Z,47.10
2022-08-01T14:10:24.404Z,47.30
2022-08-01T14:12:51.398Z,47.40
2022-08-01T14:15:37.855Z,47.40
2022-08-01T14:18:06.257Z,47.10
2022-08-01T14:20:33.976Z,47.10
2022-08-01T14:23:00.731Z,47.00
2022-08-01T14:26:00.214Z,46.80
2022-08-01T14:28:14.375Z,46.50
2022-08-01T14:30:43.500Z,45.90
2022-08-01T14:33:11.022Z,45.50
2022-08-01T14:36:01.852Z,45.30
2022-08-01T14:38:29.518Z,45.50
2022-08-01T14:41:00.513Z,45.80
2022-08-01T14:43:32.807Z,46.40
2022-08-01T14:46:01.213Z,47.10
2022-08-01T14:48:28.609Z,47.50
2022-08-01T14:50:58.219Z,47.70
2022-08-01T14:53:25.075Z,47.60
2022-08-01T14:55:51.969Z,47.40
2022-08-01T14:58:18.886Z,47.20
2022-08-01T15:00:46.610Z,47.00
2022-08-01T15:03:13.671Z,46.40
2022-08-01T15:05:40.581Z,46.00
2022-08-01T15:08:07.490Z,45.70
2022-08-01T15:10:34.453Z,45.50
2022-08-01T15:13:02.592Z,45.60
2022-08-01T15:15:29.945Z,45.80
2022-08-01T15:17:57.295Z,46.20
2022-08-01T15:20:24.102Z,46.60
2022-08-01T15:22:51.201Z,47.10
2022-08-01T15:25:18.419Z,47.40
2022-08-01T15:27:48.569Z,47.90
2022-08-01T15:30:15.533Z,48.30
2022-08-01T15:32:42.509Z,48.60
2022-08-01T15:35:11.243Z,48.90
2022-08-01T15:37:42.598Z,49.30
2022-08-01T15:40:11.086Z,49.50
2022-08-01T15:42:38.206Z,49.90
2022-08-01T15:45:05.367Z,50.10
2022-08-01T15:47:33.166Z,50.00
2022-08-01T15:50:02.384Z,50.20
2022-08-01T15:52:31.564Z,50.40
2022-08-01T15:54:59.059Z,51.20
2022-08-01T15:57:26.031Z,50.90
2022-08-01T15:59:53.093Z,51.20
2022-08-01T16:02:20.239Z,51.20
2022-08-01T16:04:47.123Z,51.40
2022-08-01T16:07:20.229Z,51.50
2022-08-01T16:09:47.232Z,51.40
2022-08-01T16:12:14.275Z,51.40
2022-08-01T16:14:41.403Z,51.40
2022-08-01T16:17:08.336Z,51.50
2022-08-01T16:19:35.282Z,51.30
2022-08-01T16:22:03.792Z,51.20
2022-08-01T16:24:31.134Z,51.00
2022-08-01T16:26:58.099Z,50.70
2022-08-01T16:29:30.742Z,50.30
2022-08-01T16:32:10.339Z,50.30
2022-08-01T16:34:46.823Z,50.70
2022-08-01T16:37:14.599Z,51.00
2022-08-01T16:39:41.458Z,51.20
2022-08-01T16:42:08.637Z,51.50
2022-08-01T16:44:35.789Z,51.80
2022-08-01T16:47:03.720Z,52.10
2022-08-01T16:49:32.180Z,52.20
2022-08-01T16:51:59.394Z,52.30
2022-08-01T16:54:26.730Z,52.50
2022-08-01T16:56:54.506Z,52.80
2022-08-01T16:59:22.964Z,53.10
2022-08-01T17:01:56.234Z,53.60
2022-08-01T17:04:29.144Z,54.10
2022-08-01T17:06:57.030Z,54.50
2022-08-01T17:09:23.931Z,55.20
2022-08-01T17:11:50.806Z,55.30
2022-08-01T17:14:18.126Z,55.30
2022-08-01T17:16:45.417Z,55.20
2022-08-01T17:19:12.526Z,55.30
2022-08-01T17:21:42.568Z,55.40
2022-08-01T17:24:09.762Z,55.80
2022-08-01T17:26:36.839Z,56.20
2022-08-01T17:29:04.003Z,56.20
2022-08-01T17:31:30.980Z,56.20
2022-08-01T17:33:57.826Z,56.20
2022-08-01T17:36:24.871Z,56.20
2022-08-01T17:38:51.861Z,56.20
2022-08-01T17:41:19.058Z,56.20
2022-08-01T17:43:46.022Z,56.50
2022-08-01T17:46:12.998Z,56.60
2022-08-01T17:48:40.139Z,56.80
2022-08-01T17:51:07.013Z,56.60
2022-08-01T17:53:33.986Z,57.10
2022-08-01T17:56:02.540Z,57.40
2022-08-01T17:58:49.599Z,57.60
2022-08-01T18:01:17.451Z,57.60
2022-08-01T18:03:44.759Z,57.90
2022-08-01T18:06:13.886Z,58.10
2022-08-01T18:08:42.013Z,58.20
2022-08-01T18:11:09.589Z,58.30
2022-08-01T18:13:40.323Z,58.50
2022-08-01T18:16:09.444Z,58.70
2022-08-01T18:18:36.560Z,58.80
2022-08-01T18:21:03.792Z,58.80
2022-08-01T18:23:30.887Z,58.90
2022-08-01T18:26:01.345Z,59.10
2022-08-01T18:28:32.744Z,59.30
2022-08-01T18:31:02.457Z,59.40
2022-08-01T18:33:29.716Z,59.60
2022-08-01T18:36:01.815Z,59.90
2022-08-01T18:38:32.813Z,60.20
2022-08-01T18:41:00.477Z,60.40
2022-08-01T18:43:27.555Z,60.60
2022-08-01T18:45:56.966Z,60.90
2022-08-01T18:48:23.902Z,61.30
2022-08-01T18:50:50.915Z,61.70
2022-08-01T18:53:18.756Z,62.00
2022-08-01T18:55:45.747Z,62.30
2022-08-01T18:58:12.647Z,62.60
2022-08-01T19:00:40.057Z,63.00
2022-08-01T19:03:07.892Z,63.20
2022-08-01T19:05:36.174Z,63.40
2022-08-01T19:08:05.431Z,63.70
2022-08-01T19:10:39.210Z,63.90
2022-08-01T19:13:07.800Z,64.10
2022-08-01T19:15:35.096Z,64.40
2022-08-01T19:18:02.266Z,64.50
2022-08-01T19:20:31.138Z,64.70
2022-08-01T19:22:57.959Z,64.90
2022-08-01T19:25:24.858Z,65.10
2022-08-01T19:27:51.771Z,65.40
2022-08-01T19:30:19.369Z,65.80
2022-08-01T19:32:47.026Z,65.70
2022-08-01T19:35:15.207Z,65.80
2022-08-01T19:37:46.176Z,66.00
2022-08-01T19:40:27.462Z,66.20
2022-08-01T19:42:56.545Z,66.30
2022-08-01T19:45:24.760Z,66.40
2022-08-01T19:47:57.169Z,66.60
2022-08-01T19:50:27.974Z,66.80
2022-08-01T19:52:56.138Z,67.00
2022-08-01T19:55:26.282Z,67.00
2022-08-01T20:00:40.670Z,67.40
2022-08-01T20:03:08.311Z,67.50
2022-08-01T20:05:37.370Z,67.50
2022-08-01T20:08:06.115Z,67.60
2022-08-01T20:10:33.046Z,67.70
2022-08-01T20:13:00.148Z,67.80
2022-08-01T20:15:27.035Z,67.90
2022-08-01T20:17:54.874Z,68.00
2022-08-01T20:20:21.860Z,68.10
2022-08-01T20:22:48.896Z,68.00
2022-08-01T20:25:18.853Z,68.10
2022-08-01T20:27:45.838Z,68.20
2022-08-01T20:30:13.459Z,68.20
2022-08-01T20:32:40.446Z,68.30
2022-08-01T20:35:08.428Z,68.30
2022-08-01T20:38:06.263Z,68.30
2022-08-01T20:40:27.006Z,68.40
2022-08-01T20:42:53.954Z,68.40
2022-08-01T20:45:22.800Z,68.60
2022-08-01T20:47:50.534Z,68.70
2022-08-01T20:50:53.447Z,69.30
2022-08-01T20:53:23.697Z,68.90
2022-08-01T20:55:59.449Z,68.90
2022-08-01T20:59:03.594Z,69.00
2022-08-01T21:01:33.578Z,69.10
2022-08-01T21:04:00.443Z,69.10
2022-08-01T21:06:30.469Z,69.10
2022-08-01T21:08:58.691Z,69.20
2022-08-01T21:11:25.664Z,69.20
2022-08-01T21:13:52.746Z,69.20
2022-08-01T21:16:26.439Z,69.20
2022-08-01T21:21:53.799Z,69.10
2022-08-01T21:24:21.242Z,69.10
2022-08-01T21:26:48.140Z,68.90
2022-08-01T21:29:17.142Z,68.90
2022-08-01T21:31:44.047Z,68.90
2022-08-01T21:34:12.308Z,68.90
2022-08-01T21:36:39.337Z,68.80
2022-08-01T21:39:07.165Z,68.80
2022-08-01T21:41:56.255Z,68.70
2022-08-01T21:44:21.356Z,68.60
2022-08-01T21:46:48.489Z,68.50
2022-08-01T21:49:15.469Z,68.40
2022-08-01T21:51:51.936Z,68.30
2022-08-01T21:54:29.618Z,68.30
2022-08-01T21:57:07.358Z,68.10
2022-08-01T21:59:40.231Z,68.00
2022-08-01T22:02:16.315Z,67.90
2022-08-01T22:05:10.450Z,67.80
2022-08-01T22:07:42.446Z,67.70
2022-08-01T22:10:09.485Z,67.60
2022-08-01T22:12:36.301Z,67.60
2022-08-01T22:15:05.318Z,67.50
2022-08-01T22:17:33.017Z,67.40
2022-08-01T22:20:00.200Z,67.20
2022-08-01T22:22:44.408Z,67.20
2022-08-01T22:25:15.955Z,67.20
2022-08-01T22:28:08.798Z,67.20
2022-08-01T22:30:29.783Z,67.10
2022-08-01T22:33:07.957Z,67.00
2022-08-01T22:35:47.719Z,66.90
2022-08-01T22:38:14.802Z,66.90
2022-08-01T22:40:48.015Z,66.90
2022-08-01T22:43:23.156Z,66.70
2022-08-01T22:46:17.392Z,66.60
2022-08-01T22:49:10.402Z,66.50
2022-08-01T22:51:55.254Z,66.30
2022-08-01T22:54:30.130Z,66.10
2022-08-01T22:56:57.290Z,66.00
2022-08-01T22:59:41.774Z,65.80
2022-08-01T23:02:10.411Z,65.70
2022-08-01T23:04:44.343Z,65.50
2022-08-01T23:07:11.286Z,65.40
2022-08-01T23:09:39.156Z,65.40
2022-08-01T23:12:22.701Z,65.30
2022-08-01T23:14:50.055Z,65.20
2022-08-01T23:17:27.145Z,65.10
2022-08-01T23:20:01.952Z,65.10
2022-08-01T23:22:31.674Z,65.10
2022-08-01T23:25:05.433Z,65.20
2022-08-01T23:27:51.748Z,65.20
2022-08-01T23:30:25.785Z,65.20
2022-08-01T23:32:53.043Z,65.10
2022-08-01T23:35:19.903Z,65.10
2022-08-01T23:37:46.751Z,65.20
2022-08-01T23:40:13.567Z,65.10
2022-08-01T23:42:40.354Z,65.20
2022-08-01T23:45:07.764Z,65.30
2022-08-01T23:47:34.758Z,65.40
2022-08-01T23:50:01.685Z,65.60
2022-08-01T23:52:32.210Z,65.70
2022-08-01T23:55:11.521Z,65.80
2022-08-01T23:57:42.184Z,65.90
